Time;durP1;ratioP1;P1;durP2;ratioP2;P2;SDS_P1;SDS_P2;PMS_P1;PMS_P2;Temp;Humidity;BMP_temperature;BMP_pressure;BME280_temperature;BME280_humidity;BME280_pressure;Samples;Min_cycle;Max_cycle;Signal;HPM_P1;HPM_P2
2022/01/07 00:01:06;;;;;;;18.88;7.95;;;;;;;;;;5006306;28;20022;-82
2022/01/07 00:03:35;;;;;;;16.42;8.10;;;;;;;;;;5006280;28;20022;-83
2022/01/07 00:06:01;;;;;;;20.33;8.52;;;;;;;;;;5000273;28;20446;-83
2022/01/07 00:08:30;;;;;;;26.23;8.20;;;;;;;;;;4998314;28;20041;-82
2022/01/07 00:10:59;;;;;;;21.77;8.55;;;;;;;;;;4998208;28;20026;-82
2022/01/07 00:13:26;;;;;;;29.48;9.38;;;;;;;;;;4999982;28;20088;-82
2022/01/07 00:15:54;;;;;;;20.00;8.38;;;;;;;;;;4997307;28;20062;-82
2022/01/07 00:18:20;;;;;;;25.23;9.15;;;;;;;;;;4999420;28;20049;-83
2022/01/07 00:20:46;;;;;;;29.60;9.38;;;;;;;;;;4999544;28;20093;-82
2022/01/07 00:23:12;;;;;;;25.23;9.02;;;;;;;;;;4999274;28;20030;-81
2022/01/07 00:25:38;;;;;;;25.92;10.10;;;;;;;;;;5001181;28;20107;-82
2022/01/07 00:28:04;;;;;;;22.90;10.25;;;;;;;;;;4998959;28;20038;-81
2022/01/07 00:30:31;;;;;;;23.55;10.38;;;;;;;;;;5000024;28;20026;-81
2022/01/07 00:32:57;;;;;;;27.08;9.52;;;;;;;;;;4997347;28;20398;-81
2022/01/07 00:35:23;;;;;;;25.77;9.82;;;;;;;;;;4999150;28;20037;-82
2022/01/07 00:37:50;;;;;;;34.50;11.57;;;;;;;;;;5000053;28;20026;-83
2022/01/07 00:40:18;;;;;;;27.35;11.05;;;;;;;;;;5003431;28;20054;-82
2022/01/07 00:42:45;;;;;;;35.72;11.95;;;;;;;;;;5002307;28;20082;-82
2022/01/07 00:45:12;;;;;;;31.85;12.55;;;;;;;;;;5002788;28;20026;-84
2022/01/07 00:47:38;;;;;;;34.97;11.95;;;;;;;;;;4998472;28;20430;-83
2022/01/07 00:50:05;;;;;;;32.38;12.13;;;;;;;;;;5002324;28;20085;-83
2022/01/07 00:52:33;;;;;;;27.65;11.80;;;;;;;;;;5010307;28;20030;-84
2022/01/07 00:54:58;;;;;;;24.77;12.05;;;;;;;;;;5017639;28;20019;-83
2022/01/07 00:57:24;;;;;;;33.63;11.88;;;;;;;;;;5011442;28;20136;-84
2022/01/07 00:59:51;;;;;;;25.90;11.35;;;;;;;;;;5004077;28;20091;-84
2022/01/07 01:02:17;;;;;;;38.53;12.18;;;;;;;;;;5000762;28;20041;-84
2022/01/07 01:04:44;;;;;;;29.10;12.48;;;;;;;;;;5003403;28;20046;-82
2022/01/07 01:07:11;;;;;;;33.30;12.70;;;;;;;;;;5001617;28;20030;-83
2022/01/07 01:09:37;;;;;;;33.95;13.30;;;;;;;;;;5002304;28;20026;-83
2022/01/07 01:12:03;;;;;;;30.38;12.35;;;;;;;;;;5001964;28;20014;-84
2022/01/07 01:14:29;;;;;;;31.20;12.95;;;;;;;;;;5002933;28;20025;-84
2022/01/07 01:16:56;;;;;;;28.92;11.75;;;;;;;;;;5001479;28;20045;-84
2022/01/07 01:19:22;;;;;;;29.50;12.35;;;;;;;;;;5002230;28;20054;-83
2022/01/07 01:21:49;;;;;;;26.58;12.73;;;;;;;;;;5001089;28;20031;-83
2022/01/07 01:24:15;;;;;;;36.05;11.85;;;;;;;;;;5002112;28;20490;-83
2022/01/07 01:26:41;;;;;;;31.52;11.82;;;;;;;;;;5005119;28;20042;-84
2022/01/07 01:29:07;;;;;;;29.42;10.60;;;;;;;;;;5002979;28;20038;-83
2022/01/07 01:31:35;;;;;;;30.17;11.75;;;;;;;;;;4997023;28;20398;-83
2022/01/07 01:34:02;;;;;;;27.30;11.60;;;;;;;;;;4998139;28;20030;-83
2022/01/07 01:36:28;;;;;;;28.23;10.50;;;;;;;;;;4995736;28;20457;-83
2022/01/07 01:38:54;;;;;;;25.27;11.57;;;;;;;;;;4997193;28;20061;-82
2022/01/07 01:41:21;;;;;;;29.98;12.57;;;;;;;;;;4996751;28;20109;-83
2022/01/07 01:43:49;;;;;;;38.40;11.68;;;;;;;;;;4996747;28;20077;-83
2022/01/07 01:46:18;;;;;;;26.95;10.68;;;;;;;;;;4995653;28;20046;-83
2022/01/07 01:48:44;;;;;;;36.15;12.32;;;;;;;;;;4997524;28;20072;-83
2022/01/07 01:51:10;;;;;;;30.70;11.85;;;;;;;;;;4998505;28;20022;-83
2022/01/07 01:53:36;;;;;;;30.88;11.70;;;;;;;;;;4997228;28;20513;-83
2022/01/07 01:56:02;;;;;;;37.17;12.27;;;;;;;;;;4998470;28;20031;-83
2022/01/07 01:58:28;;;;;;;34.67;12.23;;;;;;;;;;4995749;28;20572;-83
2022/01/07 02:00:54;;;;;;;33.20;11.27;;;;;;;;;;4995953;28;20038;-83
2022/01/07 02:03:20;;;;;;;28.33;10.38;;;;;;;;;;4998434;28;20080;-83
2022/01/07 02:05:46;;;;;;;21.52;11.10;;;;;;;;;;4996319;28;20030;-83
2022/01/07 02:08:13;;;;;;;30.05;10.65;;;;;;;;;;5007728;28;20045;-83
2022/01/07 02:10:39;;;;;;;22.73;10.82;;;;;;;;;;5006495;28;20030;-83
2022/01/07 02:13:05;;;;;;;34.00;11.27;;;;;;;;;;4996217;28;20049;-82
2022/01/07 02:15:31;;;;;;;23.92;10.13;;;;;;;;;;4996942;28;20030;-83
2022/01/07 02:17:57;;;;;;;26.50;10.25;;;;;;;;;;4996651;28;20092;-83
2022/01/07 02:20:25;;;;;;;24.70;10.30;;;;;;;;;;4999496;28;20026;-82
2022/01/07 02:22:51;;;;;;;24.70;9.45;;;;;;;;;;4994862;28;20022;-83
2022/01/07 02:25:17;;;;;;;28.00;10.30;;;;;;;;;;4998632;28;20045;-83
2022/01/07 02:27:44;;;;;;;19.75;9.60;;;;;;;;;;4996245;28;20050;-83
2022/01/07 02:30:12;;;;;;;25.27;10.77;;;;;;;;;;4996743;28;20026;-83
2022/01/07 02:32:38;;;;;;;22.45;10.35;;;;;;;;;;4975364;28;20019;-83
2022/01/07 02:35:05;;;;;;;20.73;9.93;;;;;;;;;;4992829;28;20073;-83
2022/01/07 02:37:31;;;;;;;27.08;10.00;;;;;;;;;;4977627;28;20035;-83
2022/01/07 02:39:58;;;;;;;22.25;10.63;;;;;;;;;;4978950;28;20023;-81
2022/01/07 02:42:25;;;;;;;30.23;10.18;;;;;;;;;;4993346;28;20041;-83
2022/01/07 02:44:51;;;;;;;28.98;10.23;;;;;;;;;;4977350;28;20594;-83
2022/01/07 02:47:18;;;;;;;28.77;9.77;;;;;;;;;;4978742;28;20565;-83
2022/01/07 02:49:44;;;;;;;22.23;10.07;;;;;;;;;;4978461;28;20529;-83
2022/01/07 02:52:10;;;;;;;28.48;10.75;;;;;;;;;;4994607;28;20023;-82
2022/01/07 02:54:36;;;;;;;19.85;8.43;;;;;;;;;;4985573;28;20030;-83
2022/01/07 02:57:02;;;;;;;24.70;9.13;;;;;;;;;;4997159;28;20571;-83
2022/01/07 02:59:28;;;;;;;24.05;9.30;;;;;;;;;;4997192;28;20157;-84
2022/01/07 03:01:54;;;;;;;23.35;10.00;;;;;;;;;;4996543;28;20034;-84
2022/01/07 03:04:23;;;;;;;25.60;8.77;;;;;;;;;;4998294;28;20027;-84
2022/01/07 03:06:49;;;;;;;22.30;7.78;;;;;;;;;;4994408;28;20165;-84
2022/01/07 03:09:15;;;;;;;22.73;8.80;;;;;;;;;;4994849;28;20034;-84
2022/01/07 03:11:41;;;;;;;24.77;9.77;;;;;;;;;;4996874;28;20386;-84
2022/01/07 03:14:07;;;;;;;23.35;9.27;;;;;;;;;;4998178;28;20036;-82
2022/01/07 03:16:33;;;;;;;20.92;9.20;;;;;;;;;;4997286;28;20035;-82
2022/01/07 03:18:59;;;;;;;24.58;8.75;;;;;;;;;;4996240;28;20030;-82
2022/01/07 03:21:25;;;;;;;24.20;9.25;;;;;;;;;;4994972;28;20525;-84
2022/01/07 03:23:51;;;;;;;22.15;9.20;;;;;;;;;;4995631;28;20034;-83
2022/01/07 03:26:17;;;;;;;20.25;9.55;;;;;;;;;;4997529;28;20033;-82
2022/01/07 03:28:45;;;;;;;26.10;8.63;;;;;;;;;;5004332;28;20506;-83
2022/01/07 03:31:11;;;;;;;21.88;8.50;;;;;;;;;;4996795;28;20022;-81
2022/01/07 03:33:37;;;;;;;23.55;7.85;;;;;;;;;;4996034;28;20022;-83
2022/01/07 03:36:03;;;;;;;22.77;8.02;;;;;;;;;;4994931;28;20487;-82
2022/01/07 03:38:29;;;;;;;18.77;8.20;;;;;;;;;;4995242;28;20121;-83
2022/01/07 03:40:56;;;;;;;26.45;8.77;;;;;;;;;;4996678;28;20138;-83
2022/01/07 03:43:22;;;;;;;26.52;8.38;;;;;;;;;;4997165;28;20023;-83
2022/01/07 03:45:48;;;;;;;18.33;7.65;;;;;;;;;;4995310;28;20165;-83
2022/01/07 03:48:14;;;;;;;22.90;7.25;;;;;;;;;;4995294;28;20506;-82
2022/01/07 03:50:40;;;;;;;18.30;6.80;;;;;;;;;;4993283;28;20410;-82
2022/01/07 03:53:06;;;;;;;22.15;6.80;;;;;;;;;;4997414;28;20034;-83
2022/01/07 03:55:32;;;;;;;22.55;6.97;;;;;;;;;;4995331;28;20105;-84
2022/01/07 03:57:59;;;;;;;23.77;7.88;;;;;;;;;;4998633;28;20398;-82
2022/01/07 04:00:33;;;;;;;22.92;6.72;;;;;;;;;;4996892;28;20033;-82
2022/01/07 04:03:00;;;;;;;16.65;6.45;;;;;;;;;;4995919;28;20045;-83
2022/01/07 04:05:26;;;;;;;23.38;7.10;;;;;;;;;;4998215;28;20026;-83
2022/01/07 04:07:52;;;;;;;15.27;6.40;;;;;;;;;;4993577;28;20022;-82
2022/01/07 04:10:18;;;;;;;18.40;6.38;;;;;;;;;;4996168;28;20021;-84
2022/01/07 04:12:44;;;;;;;12.57;5.47;;;;;;;;;;4994060;28;20106;-83
2022/01/07 04:15:10;;;;;;;14.80;6.57;;;;;;;;;;4996840;28;20053;-83
2022/01/07 04:17:37;;;;;;;16.52;6.30;;;;;;;;;;4997302;28;20483;-83
2022/01/07 04:20:05;;;;;;;16.60;7.63;;;;;;;;;;4997631;28;20035;-83
2022/01/07 04:22:33;;;;;;;22.92;6.82;;;;;;;;;;4996292;28;20027;-83
2022/01/07 04:24:59;;;;;;;20.42;6.60;;;;;;;;;;4993998;28;20117;-83
2022/01/07 04:27:25;;;;;;;19.30;6.40;;;;;;;;;;4996713;28;20061;-83
2022/01/07 04:29:51;;;;;;;23.48;7.03;;;;;;;;;;4997552;28;20030;-83
2022/01/07 04:32:18;;;;;;;19.80;6.28;;;;;;;;;;4993563;28;20598;-83
2022/01/07 04:34:44;;;;;;;20.60;6.45;;;;;;;;;;4997012;28;20030;-83
2022/01/07 04:37:10;;;;;;;21.35;5.65;;;;;;;;;;4998061;28;20041;-84
2022/01/07 04:39:36;;;;;;;14.23;6.40;;;;;;;;;;4999164;28;20018;-83
2022/01/07 04:42:03;;;;;;;12.73;5.97;;;;;;;;;;4999166;28;20014;-83
2022/01/07 04:44:29;;;;;;;15.52;5.50;;;;;;;;;;5001691;28;20057;-83
2022/01/07 04:46:55;;;;;;;12.77;6.10;;;;;;;;;;4997465;28;20022;-83
2022/01/07 04:49:21;;;;;;;18.63;6.45;;;;;;;;;;4999606;28;20422;-83
2022/01/07 04:51:47;;;;;;;13.57;6.13;;;;;;;;;;5000936;28;20390;-83
2022/01/07 04:54:13;;;;;;;14.60;5.95;;;;;;;;;;4998904;28;20036;-83
2022/01/07 04:56:39;;;;;;;12.95;6.10;;;;;;;;;;4999308;28;20098;-82
2022/01/07 04:59:05;;;;;;;16.13;5.50;;;;;;;;;;5000668;28;20030;-83
2022/01/07 05:01:31;;;;;;;14.57;5.47;;;;;;;;;;4999220;28;20094;-83
2022/01/07 05:03:57;;;;;;;18.38;5.53;;;;;;;;;;5000876;28;20026;-82
2022/01/07 05:09:07;;;;;;;21.25;5.82;;;;;;;;;;4999605;28;20052;-82
2022/01/07 05:11:33;;;;;;;11.70;5.63;;;;;;;;;;5009356;28;20069;-83
2022/01/07 05:13:59;;;;;;;14.30;5.32;;;;;;;;;;5015560;28;20053;-83
2022/01/07 05:16:26;;;;;;;19.23;6.22;;;;;;;;;;5008021;28;20608;-82
2022/01/07 05:18:52;;;;;;;14.27;6.03;;;;;;;;;;5003301;28;20018;-84
2022/01/07 05:21:18;;;;;;;13.20;5.57;;;;;;;;;;5003217;28;20046;-83
2022/01/07 05:23:44;;;;;;;16.88;6.25;;;;;;;;;;5005796;28;20049;-83
2022/01/07 05:26:10;;;;;;;17.75;5.05;;;;;;;;;;5004689;28;20022;-83
2022/01/07 05:28:36;;;;;;;11.73;5.72;;;;;;;;;;5010556;28;20043;-83
2022/01/07 05:31:03;;;;;;;16.05;4.97;;;;;;;;;;5001866;28;20029;-83
2022/01/07 05:33:29;;;;;;;18.77;5.43;;;;;;;;;;5001464;28;20080;-82
2022/01/07 05:35:55;;;;;;;17.25;5.10;;;;;;;;;;5000657;28;20094;-84
2022/01/07 05:38:21;;;;;;;11.35;4.68;;;;;;;;;;5002584;28;20112;-84
2022/01/07 05:40:47;;;;;;;10.80;5.00;;;;;;;;;;5002849;28;20368;-84
2022/01/07 05:43:13;;;;;;;21.58;6.15;;;;;;;;;;5002382;28;20018;-81
2022/01/07 05:45:40;;;;;;;23.10;5.43;;;;;;;;;;5002276;28;20026;-84
2022/01/07 05:48:06;;;;;;;15.45;5.45;;;;;;;;;;5006578;28;20046;-82
2022/01/07 05:50:32;;;;;;;14.27;5.03;;;;;;;;;;5009899;28;20034;-82
2022/01/07 05:52:58;;;;;;;13.30;4.93;;;;;;;;;;5009509;28;20022;-82
2022/01/07 05:55:24;;;;;;;10.45;5.13;;;;;;;;;;5007671;28;20109;-82
2022/01/07 05:57:50;;;;;;;14.52;5.00;;;;;;;;;;5001552;28;20030;-82
2022/01/07 06:00:18;;;;;;;17.40;5.95;;;;;;;;;;5000724;28;20030;-83
2022/01/07 06:02:44;;;;;;;14.10;5.43;;;;;;;;;;5000718;28;20030;-82
2022/01/07 06:05:11;;;;;;;11.75;5.20;;;;;;;;;;5001271;28;20023;-83
2022/01/07 06:07:37;;;;;;;13.73;5.57;;;;;;;;;;4981088;28;20037;-82
2022/01/07 06:10:04;;;;;;;15.98;6.05;;;;;;;;;;4986486;28;20058;-82
2022/01/07 06:12:30;;;;;;;16.92;5.60;;;;;;;;;;4990604;28;20030;-82
2022/01/07 06:14:56;;;;;;;20.27;6.50;;;;;;;;;;4987487;28;20098;-85
2022/01/07 06:17:22;;;;;;;18.92;6.53;;;;;;;;;;5007358;28;20026;-84
2022/01/07 06:19:48;;;;;;;16.38;5.60;;;;;;;;;;5000800;28;20086;-83
2022/01/07 06:22:14;;;;;;;12.70;5.78;;;;;;;;;;5000536;28;20027;-83
2022/01/07 06:24:40;;;;;;;13.82;5.65;;;;;;;;;;5000169;28;20098;-84
2022/01/07 06:27:06;;;;;;;10.77;5.82;;;;;;;;;;5001097;28;20065;-83
2022/01/07 06:29:32;;;;;;;13.70;5.63;;;;;;;;;;5001672;28;20057;-82
2022/01/07 06:31:58;;;;;;;16.80;5.75;;;;;;;;;;5000310;28;20030;-83
2022/01/07 06:34:24;;;;;;;14.35;5.03;;;;;;;;;;4999392;28;20030;-83
2022/01/07 06:36:50;;;;;;;11.75;5.20;;;;;;;;;;5000399;28;20030;-83
2022/01/07 06:39:18;;;;;;;15.38;5.95;;;;;;;;;;5000909;28;20107;-83
2022/01/07 06:41:46;;;;;;;21.30;6.50;;;;;;;;;;5000957;28;20030;-83
2022/01/07 06:44:13;;;;;;;13.05;5.43;;;;;;;;;;4999794;28;20105;-83
2022/01/07 06:46:39;;;;;;;17.67;6.07;;;;;;;;;;4997881;28;20066;-83
2022/01/07 06:49:05;;;;;;;14.25;5.50;;;;;;;;;;4998825;28;20074;-83
2022/01/07 06:51:31;;;;;;;18.63;5.85;;;;;;;;;;4999507;28;20037;-83
2022/01/07 06:53:58;;;;;;;10.93;5.43;;;;;;;;;;4996486;28;20026;-83
2022/01/07 06:56:24;;;;;;;13.55;5.68;;;;;;;;;;4995620;28;20035;-83
2022/01/07 06:58:50;;;;;;;10.85;4.95;;;;;;;;;;4997394;28;20089;-82
2022/01/07 07:01:16;;;;;;;12.27;5.70;;;;;;;;;;4998104;28;20026;-83
2022/01/07 07:03:42;;;;;;;13.07;5.68;;;;;;;;;;4998182;28;20390;-83
2022/01/07 07:06:08;;;;;;;15.80;5.47;;;;;;;;;;4997095;28;20140;-82
2022/01/07 07:08:35;;;;;;;14.55;5.82;;;;;;;;;;4999201;28;20034;-83
2022/01/07 07:11:01;;;;;;;12.27;5.53;;;;;;;;;;4999258;28;20030;-83
2022/01/07 07:13:27;;;;;;;14.50;5.03;;;;;;;;;;4998568;28;20041;-83
2022/01/07 07:15:53;;;;;;;12.82;5.43;;;;;;;;;;5000637;28;20030;-83
2022/01/07 07:18:19;;;;;;;17.90;5.47;;;;;;;;;;4998345;28;20022;-83
2022/01/07 07:20:45;;;;;;;14.68;4.32;;;;;;;;;;5001159;28;20027;-83
2022/01/07 07:23:11;;;;;;;12.02;4.95;;;;;;;;;;5000260;28;20038;-83
2022/01/07 07:25:37;;;;;;;10.30;5.35;;;;;;;;;;4999602;28;20401;-83
2022/01/07 07:28:03;;;;;;;17.88;4.85;;;;;;;;;;5005946;28;20038;-82
2022/01/07 07:30:35;;;;;;;13.93;4.30;;;;;;;;;;4996457;28;20485;-82
2022/01/07 07:38:12;;;;;;;9.02;4.22;;;;;;;;;;4994474;28;20487;-82
2022/01/07 07:40:38;;;;;;;16.20;4.97;;;;;;;;;;4994376;28;20111;-84
2022/01/07 07:43:04;;;;;;;16.95;5.88;;;;;;;;;;4983891;28;20051;-82
2022/01/07 07:45:30;;;;;;;9.07;4.50;;;;;;;;;;4993519;28;20054;-85
2022/01/07 07:47:56;;;;;;;13.80;5.00;;;;;;;;;;4994794;28;20030;-82
2022/01/07 07:50:23;;;;;;;11.50;4.15;;;;;;;;;;4976480;28;20027;-82
2022/01/07 07:52:49;;;;;;;11.30;5.65;;;;;;;;;;4976242;28;20570;-81
2022/01/07 07:55:15;;;;;;;16.38;5.47;;;;;;;;;;4974061;28;20074;-82
2022/01/07 07:57:41;;;;;;;12.45;5.28;;;;;;;;;;4985010;28;20027;-82
2022/01/07 08:00:07;;;;;;;9.05;4.55;;;;;;;;;;4994041;28;20111;-82
2022/01/07 08:02:34;;;;;;;13.55;4.88;;;;;;;;;;4997270;28;20026;-80
2022/01/07 08:05:12;;;;;;;10.55;4.75;;;;;;;;;;4995426;28;20022;-84
2022/01/07 08:07:43;;;;;;;10.02;4.95;;;;;;;;;;4991980;28;20089;-84
2022/01/07 08:10:12;;;;;;;18.10;4.40;;;;;;;;;;4991928;28;20111;-83
2022/01/07 08:16:10;;;;;;;9.50;4.65;;;;;;;;;;4938303;29;20523;-84
2022/01/07 08:18:37;;;;;;;13.50;4.95;;;;;;;;;;4931313;28;20401;-83
2022/01/07 08:21:03;;;;;;;17.88;4.45;;;;;;;;;;5003685;28;20041;-83
2022/01/07 08:23:29;;;;;;;9.65;4.30;;;;;;;;;;5002405;28;20018;-83
2022/01/07 08:25:55;;;;;;;13.15;4.32;;;;;;;;;;5002991;28;20133;-84
2022/01/07 08:28:25;;;;;;;9.80;4.70;;;;;;;;;;4999518;28;20038;-83
2022/01/07 08:36:31;;;;;;;12.20;4.15;;;;;;;;;;5004452;28;20093;-83
2022/01/07 08:39:10;;;;;;;13.25;5.15;;;;;;;;;;5003262;28;20553;-85
2022/01/07 08:41:42;;;;;;;16.15;4.53;;;;;;;;;;5000656;28;20053;-83
2022/01/07 08:44:08;;;;;;;19.30;4.30;;;;;;;;;;4984903;28;20352;-83
2022/01/07 08:46:35;;;;;;;15.38;4.60;;;;;;;;;;4992583;28;20478;-83
2022/01/07 08:49:01;;;;;;;9.35;4.82;;;;;;;;;;5000935;28;20054;-85
2022/01/07 08:51:47;;;;;;;13.50;4.45;;;;;;;;;;4997539;28;20140;-85
2022/01/07 08:54:30;;;;;;;9.40;4.50;;;;;;;;;;5000735;28;20046;-84
2022/01/07 08:56:58;;;;;;;12.57;5.05;;;;;;;;;;4996946;28;20030;-84
2022/01/07 08:59:24;;;;;;;19.00;4.63;;;;;;;;;;4999367;28;20130;-85
2022/01/07 09:02:28;;;;;;;18.30;4.20;;;;;;;;;;4999812;28;20047;-84
2022/01/07 09:05:08;;;;;;;14.27;5.28;;;;;;;;;;4996792;28;20034;-84
2022/01/07 09:08:02;;;;;;;10.55;5.22;;;;;;;;;;4998106;28;20410;-85
2022/01/07 09:10:28;;;;;;;21.98;4.80;;;;;;;;;;4996176;28;20406;-83
2022/01/07 09:12:54;;;;;;;9.70;4.82;;;;;;;;;;5002143;28;20026;-84
2022/01/07 09:15:31;;;;;;;11.90;5.57;;;;;;;;;;4998501;28;20022;-85
2022/01/07 09:18:10;;;;;;;11.57;5.15;;;;;;;;;;4996396;28;20050;-85
2022/01/07 09:20:48;;;;;;;14.00;5.30;;;;;;;;;;4997885;28;20022;-87
2022/01/07 09:23:14;;;;;;;13.80;5.20;;;;;;;;;;4999386;28;20557;-83
2022/01/07 09:25:40;;;;;;;13.25;5.35;;;;;;;;;;5009813;28;20030;-83
2022/01/07 09:28:07;;;;;;;11.10;5.55;;;;;;;;;;4997521;28;20092;-82
2022/01/07 09:30:34;;;;;;;10.52;5.45;;;;;;;;;;5000003;28;20034;-83
2022/01/07 09:33:00;;;;;;;8.15;4.80;;;;;;;;;;4996511;28;20037;-84
2022/01/07 09:35:26;;;;;;;12.23;5.28;;;;;;;;;;4996996;28;20030;-85
2022/01/07 09:37:54;;;;;;;11.32;5.80;;;;;;;;;;4997184;28;20041;-85
2022/01/07 09:40:20;;;;;;;13.60;5.85;;;;;;;;;;4996836;28;20437;-84
2022/01/07 09:42:54;;;;;;;13.27;5.82;;;;;;;;;;4999058;28;20023;-84
2022/01/07 09:45:20;;;;;;;12.65;5.22;;;;;;;;;;4999949;28;20022;-85
2022/01/07 09:47:46;;;;;;;9.65;5.10;;;;;;;;;;4996578;28;20026;-85
2022/01/07 09:50:12;;;;;;;12.48;6.10;;;;;;;;;;4998070;28;20467;-85
2022/01/07 09:52:39;;;;;;;15.15;6.50;;;;;;;;;;4994126;28;20031;-84
2022/01/07 09:55:05;;;;;;;9.88;5.63;;;;;;;;;;4997317;28;20033;-82
2022/01/07 09:57:31;;;;;;;15.85;6.00;;;;;;;;;;4997299;28;20052;-85
2022/01/07 09:59:57;;;;;;;13.68;6.47;;;;;;;;;;4995675;28;20498;-84
2022/01/07 10:02:24;;;;;;;18.65;6.90;;;;;;;;;;4998111;28;20030;-84
2022/01/07 10:04:50;;;;;;;11.65;6.00;;;;;;;;;;4997015;28;20022;-84
2022/01/07 10:07:16;;;;;;;16.90;7.00;;;;;;;;;;4996591;28;20115;-84
2022/01/07 10:09:57;;;;;;;13.38;6.07;;;;;;;;;;4998709;28;20065;-85
2022/01/07 10:12:23;;;;;;;12.00;6.10;;;;;;;;;;4995285;28;20137;-85
2022/01/07 10:15:08;;;;;;;10.82;5.72;;;;;;;;;;4999984;28;20038;-85
2022/01/07 10:17:34;;;;;;;11.43;6.57;;;;;;;;;;4996838;28;20034;-86
2022/01/07 10:20:01;;;;;;;13.85;6.53;;;;;;;;;;4994293;28;20145;-85
2022/01/07 10:22:27;;;;;;;9.45;5.55;;;;;;;;;;5000345;28;20026;-85
2022/01/07 10:24:53;;;;;;;11.90;6.07;;;;;;;;;;5001159;28;20210;-85
2022/01/07 10:27:20;;;;;;;10.93;6.13;;;;;;;;;;5000696;28;20360;-85
2022/01/07 10:29:46;;;;;;;11.40;5.75;;;;;;;;;;4997844;28;20490;-85
2022/01/07 10:32:19;;;;;;;15.00;6.25;;;;;;;;;;4981619;28;20031;-85
2022/01/07 10:35:01;;;;;;;15.10;5.88;;;;;;;;;;4977172;28;20030;-86
2022/01/07 10:37:27;;;;;;;9.68;6.03;;;;;;;;;;4977116;28;20402;-85
2022/01/07 10:39:53;;;;;;;13.20;5.55;;;;;;;;;;4990301;28;20018;-85
2022/01/07 10:42:26;;;;;;;16.48;6.72;;;;;;;;;;5010633;28;20011;-85
2022/01/07 10:45:03;;;;;;;10.73;5.85;;;;;;;;;;5010745;28;20027;-85
2022/01/07 10:47:29;;;;;;;12.02;6.00;;;;;;;;;;4998648;28;20046;-85
2022/01/07 10:50:15;;;;;;;12.68;6.78;;;;;;;;;;4998813;28;20019;-86
2022/01/07 10:52:41;;;;;;;14.95;5.47;;;;;;;;;;4996794;28;20022;-85
2022/01/07 10:55:12;;;;;;;12.18;6.30;;;;;;;;;;5000229;28;20022;-84
2022/01/07 10:57:38;;;;;;;12.05;5.85;;;;;;;;;;4996828;28;20023;-84
2022/01/07 11:00:26;;;;;;;9.80;5.95;;;;;;;;;;4997574;28;20316;-84
2022/01/07 11:02:52;;;;;;;9.85;5.75;;;;;;;;;;4998118;28;20050;-84
2022/01/07 11:05:18;;;;;;;12.07;5.78;;;;;;;;;;4999127;28;20042;-85
2022/01/07 11:07:45;;;;;;;17.15;6.10;;;;;;;;;;4996537;28;20050;-84
2022/01/07 11:10:11;;;;;;;16.63;6.50;;;;;;;;;;4999924;28;20033;-85
2022/01/07 11:12:37;;;;;;;11.88;6.25;;;;;;;;;;4999452;28;20113;-84
2022/01/07 11:15:05;;;;;;;12.25;5.97;;;;;;;;;;4996740;28;20447;-84
2022/01/07 11:17:31;;;;;;;11.43;5.63;;;;;;;;;;4998087;28;20130;-85
2022/01/07 11:20:03;;;;;;;10.90;6.00;;;;;;;;;;4995633;28;20054;-84
2022/01/07 11:22:29;;;;;;;14.50;5.68;;;;;;;;;;5001134;28;20021;-84
2022/01/07 11:24:59;;;;;;;13.40;5.57;;;;;;;;;;5001585;28;20065;-85
2022/01/07 11:27:26;;;;;;;12.75;5.80;;;;;;;;;;4993856;28;20130;-85
2022/01/07 11:29:52;;;;;;;14.70;5.63;;;;;;;;;;4995790;28;20026;-84
2022/01/07 11:32:37;;;;;;;10.00;5.25;;;;;;;;;;4980744;28;20031;-84
2022/01/07 11:35:19;;;;;;;9.80;4.78;;;;;;;;;;4995649;28;20027;-85
2022/01/07 11:37:46;;;;;;;10.73;5.90;;;;;;;;;;4996769;28;20396;-85
2022/01/07 11:40:31;;;;;;;8.57;5.00;;;;;;;;;;4986630;28;20023;-85
2022/01/07 11:42:57;;;;;;;11.05;5.32;;;;;;;;;;4995897;28;20031;-84
2022/01/07 11:45:23;;;;;;;9.95;5.07;;;;;;;;;;4997319;28;20069;-85
2022/01/07 11:47:49;;;;;;;9.88;4.78;;;;;;;;;;5001426;28;20030;-85
2022/01/07 11:50:15;;;;;;;7.45;4.57;;;;;;;;;;4983482;28;20487;-85
2022/01/07 11:52:41;;;;;;;7.88;5.00;;;;;;;;;;4981663;28;20065;-85
2022/01/07 11:55:22;;;;;;;6.25;4.30;;;;;;;;;;4982110;28;20459;-85
2022/01/07 11:57:48;;;;;;;6.13;4.45;;;;;;;;;;4982732;28;20113;-85
2022/01/07 12:00:15;;;;;;;8.40;4.50;;;;;;;;;;4980778;28;20052;-85
2022/01/07 12:02:59;;;;;;;7.95;4.45;;;;;;;;;;4981156;28;20054;-85
2022/01/07 12:05:32;;;;;;;8.20;4.25;;;;;;;;;;4981583;28;20069;-84
2022/01/07 12:07:58;;;;;;;10.15;4.72;;;;;;;;;;4979499;28;20041;-85
2022/01/07 12:10:24;;;;;;;7.70;4.28;;;;;;;;;;4979017;28;20097;-85
2022/01/07 12:12:57;;;;;;;9.05;4.88;;;;;;;;;;4979340;28;20030;-85
2022/01/07 12:15:23;;;;;;;8.73;5.00;;;;;;;;;;4984702;28;20061;-84
2022/01/07 12:17:49;;;;;;;7.80;4.55;;;;;;;;;;4997719;28;20027;-85
2022/01/07 12:20:34;;;;;;;9.30;4.70;;;;;;;;;;4999289;28;20149;-84
2022/01/07 12:23:00;;;;;;;9.02;4.70;;;;;;;;;;4999928;28;20034;-85
2022/01/07 12:25:26;;;;;;;11.57;4.90;;;;;;;;;;5000459;28;20113;-85
2022/01/07 12:28:02;;;;;;;7.88;5.15;;;;;;;;;;5000362;28;20034;-85
2022/01/07 12:30:28;;;;;;;7.80;5.30;;;;;;;;;;4997306;28;20034;-85
2022/01/07 12:32:59;;;;;;;7.88;4.88;;;;;;;;;;5000906;28;20038;-85
2022/01/07 12:35:28;;;;;;;8.57;5.37;;;;;;;;;;5000185;28;20053;-85
2022/01/07 12:37:54;;;;;;;11.48;5.47;;;;;;;;;;4998108;28;20090;-83
2022/01/07 12:40:20;;;;;;;10.55;4.95;;;;;;;;;;5001473;28;20057;-82
2022/01/07 12:42:46;;;;;;;9.70;4.95;;;;;;;;;;5013447;28;20038;-84
2022/01/07 12:45:17;;;;;;;13.32;5.30;;;;;;;;;;5008967;28;20054;-84
2022/01/07 12:47:43;;;;;;;8.63;5.23;;;;;;;;;;5008580;28;20022;-84
2022/01/07 12:50:10;;;;;;;8.57;5.10;;;;;;;;;;4989003;28;20304;-84
2022/01/07 12:52:45;;;;;;;11.65;4.60;;;;;;;;;;4986784;28;20475;-84
2022/01/07 12:55:18;;;;;;;8.15;5.28;;;;;;;;;;4996582;28;20044;-83
2022/01/07 12:57:46;;;;;;;11.07;4.78;;;;;;;;;;5004025;28;20117;-83
2022/01/07 13:00:13;;;;;;;9.75;5.18;;;;;;;;;;5005621;28;20038;-82
2022/01/07 13:02:46;;;;;;;18.88;5.30;;;;;;;;;;5005269;28;20478;-81
2022/01/07 13:05:20;;;;;;;7.82;5.03;;;;;;;;;;5003990;28;20030;-82
2022/01/07 13:07:47;;;;;;;8.88;5.72;;;;;;;;;;5004107;28;20153;-82
2022/01/07 13:10:17;;;;;;;13.07;5.30;;;;;;;;;;5004785;28;20103;-82
2022/01/07 13:12:51;;;;;;;11.27;6.25;;;;;;;;;;5003466;28;20018;-82
2022/01/07 13:15:17;;;;;;;12.38;6.00;;;;;;;;;;4997905;28;20035;-82
2022/01/07 13:17:46;;;;;;;8.82;5.88;;;;;;;;;;5000133;28;20042;-81
2022/01/07 13:20:27;;;;;;;11.95;5.45;;;;;;;;;;5007417;28;20044;-85
2022/01/07 13:22:56;;;;;;;9.80;6.15;;;;;;;;;;5002868;28;20113;-84
2022/01/07 13:25:25;;;;;;;9.05;5.60;;;;;;;;;;5000262;28;20026;-85
2022/01/07 13:27:51;;;;;;;11.68;6.53;;;;;;;;;;4993758;28;20426;-84
2022/01/07 13:30:17;;;;;;;11.27;6.68;;;;;;;;;;4998280;28;20034;-84
2022/01/07 13:32:43;;;;;;;12.20;5.80;;;;;;;;;;4997794;28;20033;-83
2022/01/07 13:35:11;;;;;;;12.60;7.30;;;;;;;;;;4998451;28;20027;-83
2022/01/07 13:37:37;;;;;;;10.50;6.57;;;;;;;;;;4995152;28;20085;-83
2022/01/07 13:40:04;;;;;;;13.43;6.57;;;;;;;;;;5002312;28;20037;-82
2022/01/07 13:42:32;;;;;;;14.18;6.35;;;;;;;;;;4997888;28;20050;-82
2022/01/07 13:45:00;;;;;;;10.75;5.55;;;;;;;;;;4998424;28;20483;-81
2022/01/07 13:47:30;;;;;;;12.93;5.22;;;;;;;;;;4999255;28;20062;-82
2022/01/07 13:50:10;;;;;;;11.82;5.95;;;;;;;;;;5000133;28;20032;-82
2022/01/07 13:52:36;;;;;;;13.32;5.55;;;;;;;;;;5017356;28;20030;-83
2022/01/07 13:55:03;;;;;;;11.23;5.68;;;;;;;;;;5002907;28;20129;-82
2022/01/07 13:57:31;;;;;;;7.60;4.82;;;;;;;;;;4996503;28;20564;-83
2022/01/07 13:59:56;;;;;;;8.98;5.05;;;;;;;;;;4995652;28;20081;-82
2022/01/07 14:02:24;;;;;;;8.65;4.85;;;;;;;;;;4995070;28;20034;-82
2022/01/07 14:04:53;;;;;;;7.45;4.95;;;;;;;;;;4995887;28;20026;-82
2022/01/07 14:07:25;;;;;;;10.13;5.68;;;;;;;;;;4997898;28;20450;-83
2022/01/07 14:10:00;;;;;;;9.05;4.88;;;;;;;;;;4998506;28;20453;-83
2022/01/07 14:13:05;;;;;;;11.35;5.40;;;;;;;;;;4999394;28;20062;-84
2022/01/07 14:15:32;;;;;;;13.40;5.20;;;;;;;;;;4999573;28;20031;-83
2022/01/07 14:18:04;;;;;;;10.15;5.85;;;;;;;;;;4998104;28;20030;-84
2022/01/07 14:20:41;;;;;;;9.38;5.47;;;;;;;;;;4998180;28;20061;-82
2022/01/07 14:23:07;;;;;;;15.90;5.68;;;;;;;;;;4996321;28;20027;-83
2022/01/07 14:25:33;;;;;;;9.13;5.45;;;;;;;;;;4998260;28;20026;-83
2022/01/07 14:28:10;;;;;;;9.70;5.70;;;;;;;;;;4996773;28;20039;-84
2022/01/07 14:30:36;;;;;;;11.02;5.45;;;;;;;;;;4995953;28;20090;-83
2022/01/07 14:33:02;;;;;;;10.82;4.90;;;;;;;;;;4997113;28;20034;-84
2022/01/07 14:35:28;;;;;;;11.02;5.97;;;;;;;;;;4999794;28;20438;-83
2022/01/07 14:37:54;;;;;;;11.95;5.22;;;;;;;;;;4997670;28;20022;-84
2022/01/07 14:40:20;;;;;;;12.10;6.35;;;;;;;;;;4997711;28;20022;-84
2022/01/07 14:42:46;;;;;;;12.05;6.65;;;;;;;;;;4982051;28;20061;-83
2022/01/07 14:45:12;;;;;;;8.57;5.65;;;;;;;;;;4991368;28;20054;-85
2022/01/07 14:47:39;;;;;;;12.77;5.80;;;;;;;;;;4999290;28;20596;-84
2022/01/07 14:50:06;;;;;;;10.35;6.07;;;;;;;;;;4998993;28;20027;-83
2022/01/07 14:52:32;;;;;;;10.57;5.97;;;;;;;;;;5002046;28;20030;-83